METAR Data
IDs: Format: Raw Decoded Include TAF

Data at: 1649 UTC 20 Jan 2019

KERV 201635Z AUTO 00000KT 10SM CLR 06/M03 A3038 RMK AO2 T00581030
KERV 201615Z AUTO 00000KT 10SM CLR 05/M03 A3037 RMK AO2 T00501028
KERV 201555Z AUTO 00000KT 10SM CLR 04/M03 A3037 RMK AO2 T00361032
KERV 201535Z AUTO 00000KT 10SM CLR 02/M03 A3037 RMK AO2 T00221032
KERV 201515Z AUTO 00000KT 10SM CLR 02/M03 A3037 RMK AO2 T00171027
KERV 201455Z AUTO 00000KT 10SM CLR 00/M03 A3036 RMK AO2 T10031032
KERV 201435Z AUTO 00000KT 10SM CLR M02/M04 A3036 RMK AO2 T10181041
KERV 201415Z AUTO 00000KT 10SM CLR M03/M05 A3036 RMK AO2 T10301055
KERV 201355Z AUTO 00000KT 10SM CLR M03/M05 A3036 RMK AO2 T10281051
KERV 201335Z AUTO 00000KT 10SM CLR M02/M05 A3036 RMK AO2 T10181047
KERV 201315Z AUTO 00000KT 10SM CLR M02/M04 A3036 RMK AO2 T10181044
KERV 201255Z AUTO 00000KT 10SM CLR M02/M04 A3036 RMK AO2 T10181043

KT82 201635Z AUTO 00000KT 10SM CLR 06/M04 A3036 RMK AO2 T00561043
KT82 201615Z AUTO 00000KT 10SM CLR 05/M04 A3037 RMK AO2 T00471040
KT82 201555Z AUTO 00000KT 10SM CLR 04/M05 A3037 RMK AO2 T00381051
KT82 201535Z AUTO 00000KT 10SM CLR 03/M05 A3037 RMK AO2 T00311053
KT82 201515Z AUTO 00000KT 10SM CLR 02/M05 A3036 RMK AO2 T00221049
KT82 201455Z AUTO 00000KT 10SM CLR 01/M04 A3036 RMK AO2 T00051042
KT82 201435Z AUTO 00000KT 10SM CLR M01/M05 A3036 RMK AO2 T10101046
KT82 201415Z AUTO 00000KT 10SM CLR M02/M05 A3037 RMK AO2 T10191050
KT82 201355Z AUTO 00000KT 10SM CLR M03/M06 A3036 RMK AO2 T10301056
KT82 201335Z AUTO 00000KT 10SM CLR M04/M06 A3036 RMK AO2 T10371063
KT82 201315Z AUTO 00000KT 10SM CLR M03/M06 A3036 RMK AO2 T10321062
KT82 201255Z AUTO 00000KT 10SM CLR M03/M06 A3036 RMK AO2 T10301060

KJCT 201551Z AUTO 00000KT 10SM CLR 03/M02 A3037 RMK AO2 SLP276 T00331017
KJCT 201451Z AUTO 28004KT 10SM CLR M01/M04 A3038 RMK AO2 SLP278 T10061044 53002
KJCT 201351Z AUTO 31003KT 10SM CLR M04/M06 A3037 RMK AO2 SLP280 T10391056
KJCT 201251Z AUTO 30003KT 10SM CLR M03/M04 A3037 RMK AO2 SLP275 T10281044

K5C1 201635Z AUTO 00000KT 10SM CLR 07/M06 A3039 RMK AO1
K5C1 201615Z AUTO 00000KT 10SM CLR 06/M06 A3039 RMK AO1
K5C1 201555Z AUTO 00000KT 10SM CLR 05/M06 A3039 RMK AO1
K5C1 201535Z AUTO 00000KT 10SM CLR 04/M06 A3039 RMK AO1
K5C1 201515Z AUTO 00000KT 10SM CLR 03/M06 A3040 RMK AO1
K5C1 201455Z AUTO 00000KT 10SM CLR 03/M06 A3038 RMK AO1
K5C1 201435Z AUTO 00000KT 10SM CLR 02/M06 A3037 RMK AO1
K5C1 201415Z AUTO 00000KT 10SM CLR 01/M06 A3037 RMK AO1
K5C1 201355Z AUTO 00000KT 10SM CLR 00/M06 A3037 RMK AO1
K5C1 201335Z AUTO 00000KT 10SM CLR 00/M06 A3038 RMK AO1
K5C1 201315Z AUTO 00000KT 10SM CLR 00/M06 A3038 RMK AO1
K5C1 201255Z AUTO 00000KT 10SM CLR 00/M06 A3037 RMK AO1

KHDO 201551Z AUTO 00000KT 10SM CLR 08/M02 A3039 RMK AO2 SLP290 T00781022 $
KHDO 201451Z AUTO 00000KT 10SM CLR 04/M01 A3040 RMK AO2 SLP291 T00441011 51016 $
KHDO 201351Z AUTO 00000KT 10SM CLR 00/M04 A3038 RMK AO2 SLP287 T00001039 $
KHDO 201251Z AUTO 24003KT 10SM CLR 01/M03 A3038 RMK AO2 SLP284 T00111033 $

KUVA 201635Z AUTO 12003KT 10SM CLR 07/M03 A3041 RMK AO2 T00731029
KUVA 201615Z AUTO 13003KT 10SM CLR 07/M02 A3041 RMK AO2 T00721019
KUVA 201555Z AUTO 00000KT 10SM CLR 06/M01 A3041 RMK AO2 T00631011
KUVA 201535Z AUTO 00000KT 10SM CLR 05/M01 A3041 RMK AO2 T00511008
KUVA 201515Z AUTO 00000KT 10SM CLR 04/M01 A3042 RMK AO2 T00411010
KUVA 201455Z AUTO 00000KT 10SM CLR 03/M01 A3041 RMK AO2 T00301007
KUVA 201435Z AUTO 00000KT 10SM CLR 02/00 A3041 RMK AO2 T00161002
KUVA 201415Z AUTO 05003KT 10SM CLR 00/M02 A3041 RMK AO2 T00001018
KUVA 201355Z AUTO 00000KT 10SM CLR M01/M03 A3040 RMK AO2 T10131029
KUVA 201335Z AUTO 00000KT 10SM CLR M01/M02 A3039 RMK AO2 T10131025
KUVA 201315Z AUTO 00000KT 10SM CLR 00/M02 A3039 RMK AO2 T10041025
KUVA 201255Z AUTO 00000KT 10SM CLR 00/M02 A3038 RMK AO2 T00011021

KSAT 201551Z 36005KT 10SM SCT250 07/M06 A3040 RMK AO2 SLP288 T00671056
KSAT 201451Z 04006KT 10SM FEW250 04/M05 A3040 RMK AO2 SLP287 T00441050 52010
KSAT 201351Z 03005KT 10SM FEW250 02/M05 A3039 RMK AO2 SLP284 T00171050
KSAT 201251Z 36004KT 10SM CLR 01/M06 A3038 RMK AO2 SLP281 T00061056

KDWH 201553Z 35006KT 10SM CLR 04/M03 A3040 RMK AO2 SLP295 T00391028
KDWH 201453Z 35010KT 10SM CLR 01/M04 A3041 RMK AO2 SLP297 T00111039 51020
KDWH 201353Z 34007KT 10SM CLR 00/M04 A3040 RMK AO2 SLP293 T00001039
KDWH 201253Z 33005KT 10SM CLR M01/M04 A3038 RMK AO2 SLP287 T10061039

KUXL 201635Z AUTO 36007KT 10SM CLR 05/M02 A3035 RMK AO2 T00501019
KUXL 201615Z AUTO 34009KT 10SM CLR 05/M02 A3039 RMK AO2 T00471023
KUXL 201555Z AUTO 36011KT 10SM CLR 04/M02 A3038 RMK AO2 T00411024
KUXL 201535Z AUTO 36009KT 10SM CLR 04/M02 A3038 RMK AO2 T00381025
KUXL 201515Z AUTO 36008KT 10SM CLR 03/M03 A3036 RMK AO2 T00331029
KUXL 201455Z AUTO 34010G14KT 10SM CLR 03/M03 A3037 RMK AO2 T00301027
KUXL 201435Z AUTO 36012G17KT 10SM SCT024 03/M03 A3035 RMK AO2 T00251033
KUXL 201415Z AUTO 36007KT 10SM SCT024 02/M03 A3035 RMK AO2 T00221033
KUXL 201355Z AUTO 35011G15KT 10SM BKN024 02/M03 A3034 RMK AO2 T00171032
KUXL 201335Z AUTO 35010KT 10SM OVC024 02/M03 A3035 RMK AO2 T00151033
KUXL 201315Z AUTO 36011G14KT 10SM OVC024 02/M03 A3033 RMK AO2 T00161032
KUXL 201255Z AUTO 35008KT 10SM OVC024 02/M03 A3034 RMK AO2 T00191027

KAPS 201635Z AUTO 01009G17KT 10SM OVC025 05/M02 A3032 RMK AO2 T00541016
KAPS 201615Z AUTO 35012G16KT 10SM OVC025 05/M02 A3033 RMK AO2 T00471019
KAPS 201555Z AUTO 36011G15KT 10SM OVC025 05/M02 A3032 RMK AO2 T00461019
KAPS 201535Z AUTO 01010G14KT 10SM OVC023 05/M02 A3032 RMK AO2 T00451018
KAPS 201515Z AUTO 36012G19KT 10SM OVC023 04/M02 A3030 RMK AO2 T00401021
KAPS 201455Z AUTO 01010G18KT 10SM OVC023 04/M02 A3029 RMK AO2 T00391019
KAPS 201435Z AUTO 36009G17KT 10SM OVC023 04/M02 A3029 RMK AO2 T00361021
KAPS 201415Z AUTO 36014G19KT 10SM OVC023 04/M02 A3028 RMK AO2 T00351021
KAPS 201355Z AUTO 36010G14KT 10SM OVC023 03/M02 A3027 RMK AO2 T00331020
KAPS 201335Z AUTO 01009G17KT 10SM OVC023 03/M02 A3027 RMK AO2 T00321023
KAPS 201315Z AUTO 01009G20KT 10SM OVC025 03/M02 A3026 RMK AO2 T00321024
KAPS 201255Z AUTO 01013G20KT 10SM OVC025 03/M03 A3026 RMK AO2 T00321026

KJKA 201635Z AUTO 34012G20KT 10SM OVC024 04/M06 A3021 RMK AO2 T00401060
KJKA 201615Z AUTO 34009G17KT 10SM OVC024 04/M05 A3020 RMK AO2 T00401055
KJKA 201555Z AUTO 33012G18KT 10SM OVC022 04/M06 A3019 RMK AO2 T00381056
KJKA 201535Z AUTO 32010G17KT 290V350 10SM OVC022 04/M06 A3019 RMK AO2 T00361056
KJKA 201515Z AUTO 33007G16KT 10SM OVC022 03/M07 A3018 RMK AO2 T00341067
KJKA 201455Z AUTO 33009G22KT 10SM OVC022 03/M05 A3017 RMK AO2 T00311053
KJKA 201435Z AUTO 33006G17KT 10SM OVC022 03/M06 A3015 RMK AO2 T00301064
KJKA 201415Z AUTO 32011G15KT 10SM OVC022 03/M07 A3015 RMK AO2 T00301075
KJKA 201355Z AUTO 32011G18KT 10SM OVC022 03/M07 A3015 RMK AO2 T00301074
KJKA 201335Z AUTO 32010G16KT 10SM OVC022 03/M05 A3013 RMK AO2 T00311053
KJKA 201315Z AUTO 33008G21KT 10SM OVC022 03/M09 A3012 RMK AO2 T00301092
KJKA 201255Z AUTO 33012G19KT 10SM OVC022 03/M18 A3010 RMK AO2 T00301179